sensor_id;sensor_type;location;lat;lon;timestamp;P1;durP1;ratioP1;P2;durP2;ratioP2
65665;SDS011;52365;47.464;18.976;2022-12-16T00:00:28;37.33;;;16.92;;
65665;SDS011;52365;47.464;18.976;2022-12-16T00:01:45;41.25;;;17.98;;
65665;SDS011;52365;47.464;18.976;2022-12-16T00:02:21;38.08;;;17.27;;
65665;SDS011;52365;47.464;18.976;2022-12-16T00:02:58;38.50;;;16.90;;
65665;SDS011;52365;47.464;18.976;2022-12-16T00:03:36;39.97;;;17.17;;
65665;SDS011;52365;47.464;18.976;2022-12-16T00:04:13;37.60;;;16.30;;
65665;SDS011;52365;47.464;18.976;2022-12-16T00:04:52;37.28;;;15.95;;
65665;SDS011;52365;47.464;18.976;2022-12-16T00:05:28;37.65;;;16.02;;
65665;SDS011;52365;47.464;18.976;2022-12-16T00:06:05;34.33;;;15.73;;
65665;SDS011;52365;47.464;18.976;2022-12-16T00:06:42;32.92;;;16.02;;
65665;SDS011;52365;47.464;18.976;2022-12-16T00:07:18;38.03;;;16.15;;
65665;SDS011;52365;47.464;18.976;2022-12-16T00:07:54;33.30;;;15.73;;
65665;SDS011;52365;47.464;18.976;2022-12-16T00:08:32;33.42;;;15.55;;
65665;SDS011;52365;47.464;18.976;2022-12-16T00:09:09;33.63;;;16.02;;
65665;SDS011;52365;47.464;18.976;2022-12-16T00:09:45;33.00;;;15.73;;
65665;SDS011;52365;47.464;18.976;2022-12-16T00:10:21;33.70;;;16.40;;
65665;SDS011;52365;47.464;18.976;2022-12-16T00:10:58;35.63;;;16.48;;
65665;SDS011;52365;47.464;18.976;2022-12-16T00:11:35;32.30;;;15.20;;
65665;SDS011;52365;47.464;18.976;2022-12-16T00:12:11;36.22;;;15.82;;
65665;SDS011;52365;47.464;18.976;2022-12-16T00:12:47;31.90;;;14.77;;
65665;SDS011;52365;47.464;18.976;2022-12-16T00:13:23;32.67;;;15.23;;
65665;SDS011;52365;47.464;18.976;2022-12-16T00:13:59;34.38;;;14.93;;
65665;SDS011;52365;47.464;18.976;2022-12-16T00:14:36;29.23;;;14.95;;
65665;SDS011;52365;47.464;18.976;2022-12-16T00:15:12;28.23;;;14.32;;
65665;SDS011;52365;47.464;18.976;2022-12-16T00:15:48;27.98;;;12.93;;
65665;SDS011;52365;47.464;18.976;2022-12-16T00:16:24;27.30;;;13.52;;
65665;SDS011;52365;47.464;18.976;2022-12-16T00:17:00;29.08;;;14.55;;
65665;SDS011;52365;47.464;18.976;2022-12-16T00:17:36;27.23;;;14.02;;
65665;SDS011;52365;47.464;18.976;2022-12-16T00:18:14;28.52;;;14.20;;
65665;SDS011;52365;47.464;18.976;2022-12-16T00:18:50;28.27;;;13.98;;
65665;SDS011;52365;47.464;18.976;2022-12-16T00:19:26;25.58;;;13.25;;
65665;SDS011;52365;47.464;18.976;2022-12-16T00:20:02;27.27;;;13.50;;
65665;SDS011;52365;47.464;18.976;2022-12-16T00:20:44;26.60;;;13.65;;
65665;SDS011;52365;47.464;18.976;2022-12-16T00:21:23;28.33;;;13.80;;
65665;SDS011;52365;47.464;18.976;2022-12-16T00:22:04;25.65;;;13.05;;
65665;SDS011;52365;47.464;18.976;2022-12-16T00:22:40;25.52;;;12.70;;
65665;SDS011;52365;47.464;18.976;2022-12-16T00:23:16;24.35;;;12.63;;
65665;SDS011;52365;47.464;18.976;2022-12-16T00:23:52;25.02;;;12.60;;
65665;SDS011;52365;47.464;18.976;2022-12-16T00:24:28;24.58;;;12.23;;
65665;SDS011;52365;47.464;18.976;2022-12-16T00:25:06;24.10;;;12.20;;
65665;SDS011;52365;47.464;18.976;2022-12-16T00:25:43;23.90;;;12.37;;
65665;SDS011;52365;47.464;18.976;2022-12-16T00:26:20;22.75;;;11.52;;
65665;SDS011;52365;47.464;18.976;2022-12-16T00:26:56;22.52;;;11.68;;
65665;SDS011;52365;47.464;18.976;2022-12-16T00:27:32;24.63;;;11.82;;
65665;SDS011;52365;47.464;18.976;2022-12-16T00:28:09;23.20;;;12.18;;
65665;SDS011;52365;47.464;18.976;2022-12-16T00:28:46;20.62;;;11.32;;
65665;SDS011;52365;47.464;18.976;2022-12-16T00:29:22;19.80;;;11.45;;
65665;SDS011;52365;47.464;18.976;2022-12-16T00:29:58;22.55;;;11.73;;
65665;SDS011;52365;47.464;18.976;2022-12-16T00:30:34;21.02;;;11.05;;
65665;SDS011;52365;47.464;18.976;2022-12-16T00:31:11;21.15;;;11.23;;
65665;SDS011;52365;47.464;18.976;2022-12-16T00:31:47;20.60;;;11.25;;
65665;SDS011;52365;47.464;18.976;2022-12-16T00:32:24;19.48;;;10.52;;
65665;SDS011;52365;47.464;18.976;2022-12-16T00:33:00;20.58;;;11.02;;
65665;SDS011;52365;47.464;18.976;2022-12-16T00:33:36;20.25;;;10.82;;
65665;SDS011;52365;47.464;18.976;2022-12-16T00:34:13;19.60;;;10.30;;
65665;SDS011;52365;47.464;18.976;2022-12-16T00:34:49;18.40;;;10.73;;
65665;SDS011;52365;47.464;18.976;2022-12-16T00:35:25;17.95;;;10.30;;
65665;SDS011;52365;47.464;18.976;2022-12-16T00:36:01;18.77;;;10.73;;
65665;SDS011;52365;47.464;18.976;2022-12-16T00:36:39;18.00;;;10.25;;
65665;SDS011;52365;47.464;18.976;2022-12-16T00:37:15;18.12;;;9.93;;
65665;SDS011;52365;47.464;18.976;2022-12-16T00:37:51;18.02;;;10.30;;
65665;SDS011;52365;47.464;18.976;2022-12-16T00:38:27;19.25;;;10.18;;
65665;SDS011;52365;47.464;18.976;2022-12-16T00:39:03;17.25;;;10.02;;
65665;SDS011;52365;47.464;18.976;2022-12-16T00:39:39;17.83;;;9.63;;
65665;SDS011;52365;47.464;18.976;2022-12-16T00:40:15;18.27;;;10.43;;
65665;SDS011;52365;47.464;18.976;2022-12-16T00:40:51;17.65;;;9.82;;
65665;SDS011;52365;47.464;18.976;2022-12-16T00:41:28;17.65;;;9.55;;
65665;SDS011;52365;47.464;18.976;2022-12-16T00:42:04;17.92;;;9.98;;
65665;SDS011;52365;47.464;18.976;2022-12-16T00:42:40;17.50;;;9.38;;
65665;SDS011;52365;47.464;18.976;2022-12-16T00:43:16;17.98;;;9.98;;
65665;SDS011;52365;47.464;18.976;2022-12-16T00:43:52;18.37;;;9.80;;
65665;SDS011;52365;47.464;18.976;2022-12-16T00:44:28;15.63;;;9.13;;
65665;SDS011;52365;47.464;18.976;2022-12-16T00:45:04;17.35;;;9.90;;
65665;SDS011;52365;47.464;18.976;2022-12-16T00:45:40;16.00;;;9.32;;
65665;SDS011;52365;47.464;18.976;2022-12-16T00:46:16;16.60;;;9.65;;
65665;SDS011;52365;47.464;18.976;2022-12-16T00:46:52;16.85;;;9.20;;
65665;SDS011;52365;47.464;18.976;2022-12-16T00:47:28;16.95;;;9.82;;
65665;SDS011;52365;47.464;18.976;2022-12-16T00:48:05;17.62;;;10.23;;
65665;SDS011;52365;47.464;18.976;2022-12-16T00:48:42;16.37;;;9.85;;
65665;SDS011;52365;47.464;18.976;2022-12-16T00:49:18;17.42;;;9.82;;
65665;SDS011;52365;47.464;18.976;2022-12-16T00:49:54;17.08;;;9.77;;
65665;SDS011;52365;47.464;18.976;2022-12-16T00:50:30;16.05;;;9.80;;
65665;SDS011;52365;47.464;18.976;2022-12-16T00:51:06;16.33;;;9.50;;
65665;SDS011;52365;47.464;18.976;2022-12-16T00:51:42;16.10;;;9.40;;
65665;SDS011;52365;47.464;18.976;2022-12-16T00:52:18;15.73;;;9.40;;
65665;SDS011;52365;47.464;18.976;2022-12-16T00:52:54;16.33;;;9.35;;
65665;SDS011;52365;47.464;18.976;2022-12-16T00:53:30;17.52;;;9.30;;
65665;SDS011;52365;47.464;18.976;2022-12-16T00:54:07;16.23;;;9.40;;
65665;SDS011;52365;47.464;18.976;2022-12-16T00:54:43;15.85;;;9.15;;
65665;SDS011;52365;47.464;18.976;2022-12-16T00:55:19;18.77;;;10.00;;
65665;SDS011;52365;47.464;18.976;2022-12-16T00:56:05;15.18;;;9.52;;
65665;SDS011;52365;47.464;18.976;2022-12-16T00:56:43;18.65;;;9.73;;
65665;SDS011;52365;47.464;18.976;2022-12-16T00:57:19;16.87;;;9.45;;
65665;SDS011;52365;47.464;18.976;2022-12-16T00:57:55;15.38;;;8.93;;
65665;SDS011;52365;47.464;18.976;2022-12-16T00:58:31;16.35;;;9.90;;
65665;SDS011;52365;47.464;18.976;2022-12-16T00:59:07;15.85;;;9.38;;
65665;SDS011;52365;47.464;18.976;2022-12-16T00:59:43;16.08;;;9.40;;
65665;SDS011;52365;47.464;18.976;2022-12-16T01:00:19;15.25;;;9.43;;
65665;SDS011;52365;47.464;18.976;2022-12-16T01:00:57;15.38;;;9.40;;
65665;SDS011;52365;47.464;18.976;2022-12-16T01:01:33;16.12;;;9.27;;
65665;SDS011;52365;47.464;18.976;2022-12-16T01:02:09;15.82;;;8.93;;
65665;SDS011;52365;47.464;18.976;2022-12-16T01:02:46;17.35;;;9.85;;
65665;SDS011;52365;47.464;18.976;2022-12-16T01:03:23;17.67;;;9.75;;
65665;SDS011;52365;47.464;18.976;2022-12-16T01:03:59;15.52;;;9.18;;
65665;SDS011;52365;47.464;18.976;2022-12-16T01:04:35;14.13;;;8.82;;
65665;SDS011;52365;47.464;18.976;2022-12-16T01:05:12;17.20;;;9.90;;
65665;SDS011;52365;47.464;18.976;2022-12-16T01:05:50;15.00;;;8.80;;
65665;SDS011;52365;47.464;18.976;2022-12-16T01:06:26;14.87;;;9.18;;
65665;SDS011;52365;47.464;18.976;2022-12-16T01:07:02;15.68;;;9.25;;
65665;SDS011;52365;47.464;18.976;2022-12-16T01:07:38;15.77;;;8.50;;
65665;SDS011;52365;47.464;18.976;2022-12-16T01:08:14;14.25;;;8.73;;
65665;SDS011;52365;47.464;18.976;2022-12-16T01:08:51;14.25;;;8.93;;
65665;SDS011;52365;47.464;18.976;2022-12-16T01:09:27;15.05;;;9.02;;
65665;SDS011;52365;47.464;18.976;2022-12-16T01:10:04;14.80;;;8.90;;
65665;SDS011;52365;47.464;18.976;2022-12-16T01:10:41;15.20;;;8.98;;
65665;SDS011;52365;47.464;18.976;2022-12-16T01:11:18;13.82;;;8.80;;
65665;SDS011;52365;47.464;18.976;2022-12-16T01:11:55;15.23;;;9.25;;
65665;SDS011;52365;47.464;18.976;2022-12-16T01:12:31;14.52;;;8.57;;
65665;SDS011;52365;47.464;18.976;2022-12-16T01:13:08;14.52;;;9.13;;
65665;SDS011;52365;47.464;18.976;2022-12-16T01:13:44;14.23;;;9.38;;
65665;SDS011;52365;47.464;18.976;2022-12-16T01:14:21;15.48;;;8.77;;
65665;SDS011;52365;47.464;18.976;2022-12-16T01:14:57;15.48;;;9.10;;
65665;SDS011;52365;47.464;18.976;2022-12-16T01:15:33;15.15;;;9.07;;
65665;SDS011;52365;47.464;18.976;2022-12-16T01:16:12;14.73;;;8.73;;
65665;SDS011;52365;47.464;18.976;2022-12-16T01:16:48;13.65;;;8.77;;
65665;SDS011;52365;47.464;18.976;2022-12-16T01:17:24;13.73;;;8.02;;
65665;SDS011;52365;47.464;18.976;2022-12-16T01:18:01;14.32;;;7.90;;
65665;SDS011;52365;47.464;18.976;2022-12-16T01:18:37;12.63;;;8.30;;
65665;SDS011;52365;47.464;18.976;2022-12-16T01:19:13;12.98;;;8.35;;
65665;SDS011;52365;47.464;18.976;2022-12-16T01:19:49;13.30;;;8.50;;
65665;SDS011;52365;47.464;18.976;2022-12-16T01:20:25;13.62;;;8.13;;
65665;SDS011;52365;47.464;18.976;2022-12-16T01:21:02;13.62;;;8.10;;
65665;SDS011;52365;47.464;18.976;2022-12-16T01:21:39;13.27;;;8.30;;
65665;SDS011;52365;47.464;18.976;2022-12-16T01:22:15;12.10;;;7.60;;
65665;SDS011;52365;47.464;18.976;2022-12-16T01:22:51;13.23;;;8.05;;
65665;SDS011;52365;47.464;18.976;2022-12-16T01:23:27;12.73;;;8.10;;
65665;SDS011;52365;47.464;18.976;2022-12-16T01:24:04;12.23;;;7.75;;
65665;SDS011;52365;47.464;18.976;2022-12-16T01:24:40;13.52;;;8.52;;
65665;SDS011;52365;47.464;18.976;2022-12-16T01:25:18;13.62;;;8.98;;
65665;SDS011;52365;47.464;18.976;2022-12-16T01:25:54;14.25;;;8.30;;
65665;SDS011;52365;47.464;18.976;2022-12-16T01:26:33;14.00;;;8.38;;
65665;SDS011;52365;47.464;18.976;2022-12-16T01:27:09;13.48;;;8.10;;
65665;SDS011;52365;47.464;18.976;2022-12-16T01:27:46;14.70;;;8.40;;
65665;SDS011;52365;47.464;18.976;2022-12-16T01:28:22;12.35;;;7.80;;
65665;SDS011;52365;47.464;18.976;2022-12-16T01:28:58;11.82;;;7.87;;
65665;SDS011;52365;47.464;18.976;2022-12-16T01:29:34;12.40;;;7.80;;
65665;SDS011;52365;47.464;18.976;2022-12-16T01:30:10;13.27;;;8.20;;
65665;SDS011;52365;47.464;18.976;2022-12-16T01:30:47;12.80;;;7.95;;
65665;SDS011;52365;47.464;18.976;2022-12-16T01:31:23;13.10;;;8.05;;
65665;SDS011;52365;47.464;18.976;2022-12-16T01:31:59;12.00;;;7.62;;
65665;SDS011;52365;47.464;18.976;2022-12-16T01:32:35;12.88;;;7.78;;
65665;SDS011;52365;47.464;18.976;2022-12-16T01:33:11;11.85;;;7.85;;
65665;SDS011;52365;47.464;18.976;2022-12-16T01:33:47;12.93;;;8.07;;
65665;SDS011;52365;47.464;18.976;2022-12-16T01:34:24;13.25;;;8.57;;
65665;SDS011;52365;47.464;18.976;2022-12-16T01:35:00;12.68;;;8.30;;
65665;SDS011;52365;47.464;18.976;2022-12-16T01:35:36;12.20;;;8.20;;
65665;SDS011;52365;47.464;18.976;2022-12-16T01:36:12;13.25;;;8.48;;
65665;SDS011;52365;47.464;18.976;2022-12-16T01:36:48;13.77;;;8.52;;
65665;SDS011;52365;47.464;18.976;2022-12-16T01:37:24;13.23;;;8.23;;
65665;SDS011;52365;47.464;18.976;2022-12-16T01:38:00;12.43;;;8.07;;
65665;SDS011;52365;47.464;18.976;2022-12-16T01:38:36;14.90;;;8.63;;
65665;SDS011;52365;47.464;18.976;2022-12-16T01:39:12;12.43;;;8.10;;
65665;SDS011;52365;47.464;18.976;2022-12-16T01:39:49;13.10;;;8.30;;
65665;SDS011;52365;47.464;18.976;2022-12-16T01:40:25;12.60;;;8.23;;
65665;SDS011;52365;47.464;18.976;2022-12-16T01:41:02;12.52;;;8.18;;
65665;SDS011;52365;47.464;18.976;2022-12-16T01:41:39;13.23;;;8.55;;
65665;SDS011;52365;47.464;18.976;2022-12-16T01:42:16;12.10;;;8.13;;
65665;SDS011;52365;47.464;18.976;2022-12-16T01:42:54;13.23;;;8.60;;
65665;SDS011;52365;47.464;18.976;2022-12-16T01:43:34;11.95;;;7.78;;
65665;SDS011;52365;47.464;18.976;2022-12-16T01:44:18;12.20;;;8.20;;
65665;SDS011;52365;47.464;18.976;2022-12-16T01:44:56;12.40;;;8.05;;
65665;SDS011;52365;47.464;18.976;2022-12-16T01:45:53;11.07;;;7.60;;
65665;SDS011;52365;47.464;18.976;2022-12-16T01:46:33;12.37;;;8.27;;
65665;SDS011;52365;47.464;18.976;2022-12-16T01:47:21;10.75;;;7.78;;
65665;SDS011;52365;47.464;18.976;2022-12-16T01:49:04;10.63;;;7.07;;
65665;SDS011;52365;47.464;18.976;2022-12-16T01:49:49;11.12;;;7.50;;
65665;SDS011;52365;47.464;18.976;2022-12-16T01:50:33;11.23;;;7.80;;
65665;SDS011;52365;47.464;18.976;2022-12-16T01:51:12;12.15;;;7.30;;
65665;SDS011;52365;47.464;18.976;2022-12-16T01:51:57;10.35;;;7.15;;
65665;SDS011;52365;47.464;18.976;2022-12-16T01:52:39;10.95;;;7.20;;
65665;SDS011;52365;47.464;18.976;2022-12-16T01:53:19;11.07;;;7.62;;
65665;SDS011;52365;47.464;18.976;2022-12-16T01:54:00;10.73;;;7.23;;
65665;SDS011;52365;47.464;18.976;2022-12-16T01:54:43;10.80;;;7.47;;
65665;SDS011;52365;47.464;18.976;2022-12-16T01:55:30;10.70;;;7.28;;
65665;SDS011;52365;47.464;18.976;2022-12-16T01:56:10;11.98;;;8.13;;
65665;SDS011;52365;47.464;18.976;2022-12-16T01:56:53;11.65;;;8.00;;
65665;SDS011;52365;47.464;18.976;2022-12-16T01:57:37;12.77;;;8.65;;
65665;SDS011;52365;47.464;18.976;2022-12-16T01:58:21;12.35;;;8.38;;
65665;SDS011;52365;47.464;18.976;2022-12-16T01:59:01;11.93;;;8.25;;
65665;SDS011;52365;47.464;18.976;2022-12-16T01:59:38;12.30;;;8.23;;
65665;SDS011;52365;47.464;18.976;2022-12-16T02:00:18;12.32;;;8.05;;
65665;SDS011;52365;47.464;18.976;2022-12-16T02:00:54;11.25;;;7.97;;
65665;SDS011;52365;47.464;18.976;2022-12-16T02:01:30;13.40;;;8.57;;
65665;SDS011;52365;47.464;18.976;2022-12-16T02:02:07;11.23;;;7.68;;
65665;SDS011;52365;47.464;18.976;2022-12-16T02:02:44;11.63;;;8.05;;
65665;SDS011;52365;47.464;18.976;2022-12-16T02:03:22;12.77;;;8.25;;
65665;SDS011;52365;47.464;18.976;2022-12-16T02:04:00;12.32;;;8.02;;
65665;SDS011;52365;47.464;18.976;2022-12-16T02:04:38;11.65;;;7.72;;
65665;SDS011;52365;47.464;18.976;2022-12-16T02:05:33;12.07;;;7.72;;
65665;SDS011;52365;47.464;18.976;2022-12-16T02:06:13;12.00;;;8.43;;
65665;SDS011;52365;47.464;18.976;2022-12-16T02:06:49;11.63;;;7.85;;
65665;SDS011;52365;47.464;18.976;2022-12-16T02:07:25;12.48;;;8.15;;
65665;SDS011;52365;47.464;18.976;2022-12-16T02:08:40;12.60;;;8.43;;
65665;SDS011;52365;47.464;18.976;2022-12-16T02:09:17;12.25;;;8.20;;
65665;SDS011;52365;47.464;18.976;2022-12-16T02:09:53;11.57;;;8.15;;
65665;SDS011;52365;47.464;18.976;2022-12-16T02:13:46;13.23;;;8.93;;
65665;SDS011;52365;47.464;18.976;2022-12-16T02:15:28;12.00;;;8.40;;
65665;SDS011;52365;47.464;18.976;2022-12-16T02:17:42;12.63;;;8.73;;
65665;SDS011;52365;47.464;18.976;2022-12-16T02:32:11;12.73;;;8.77;;
65665;SDS011;52365;47.464;18.976;2022-12-16T02:34:31;11.35;;;7.95;;
65665;SDS011;52365;47.464;18.976;2022-12-16T02:35:38;13.48;;;9.13;;
65665;SDS011;52365;47.464;18.976;2022-12-16T02:37:23;12.90;;;9.40;;
65665;SDS011;52365;47.464;18.976;2022-12-16T02:38:58;13.93;;;9.73;;
65665;SDS011;52365;47.464;18.976;2022-12-16T02:39:59;14.82;;;10.20;;
65665;SDS011;52365;47.464;18.976;2022-12-16T02:40:40;14.55;;;9.98;;
65665;SDS011;52365;47.464;18.976;2022-12-16T02:41:59;15.25;;;10.73;;
65665;SDS011;52365;47.464;18.976;2022-12-16T02:42:59;15.10;;;10.48;;
65665;SDS011;52365;47.464;18.976;2022-12-16T02:44:02;15.85;;;10.82;;
65665;SDS011;52365;47.464;18.976;2022-12-16T02:44:47;13.48;;;10.05;;
65665;SDS011;52365;47.464;18.976;2022-12-16T02:45:36;16.05;;;10.00;;
65665;SDS011;52365;47.464;18.976;2022-12-16T02:46:14;12.82;;;9.65;;
65665;SDS011;52365;47.464;18.976;2022-12-16T02:46:53;14.27;;;10.10;;
65665;SDS011;52365;47.464;18.976;2022-12-16T02:47:30;14.23;;;9.68;;
65665;SDS011;52365;47.464;18.976;2022-12-16T02:48:07;13.88;;;9.52;;
65665;SDS011;52365;47.464;18.976;2022-12-16T02:48:43;14.10;;;9.55;;
65665;SDS011;52365;47.464;18.976;2022-12-16T02:49:56;12.85;;;9.20;;
65665;SDS011;52365;47.464;18.976;2022-12-16T02:50:34;12.90;;;9.00;;
65665;SDS011;52365;47.464;18.976;2022-12-16T02:51:14;15.70;;;10.35;;
65665;SDS011;52365;47.464;18.976;2022-12-16T02:51:51;15.15;;;10.15;;
65665;SDS011;52365;47.464;18.976;2022-12-16T02:52:29;13.98;;;9.70;;
65665;SDS011;52365;47.464;18.976;2022-12-16T02:53:09;13.50;;;9.68;;
65665;SDS011;52365;47.464;18.976;2022-12-16T02:53:46;14.48;;;9.93;;
65665;SDS011;52365;47.464;18.976;2022-12-16T02:54:24;13.57;;;9.80;;
65665;SDS011;52365;47.464;18.976;2022-12-16T02:55:01;13.80;;;10.15;;
65665;SDS011;52365;47.464;18.976;2022-12-16T02:58:15;14.60;;;10.35;;
65665;SDS011;52365;47.464;18.976;2022-12-16T03:00:27;15.45;;;10.60;;
65665;SDS011;52365;47.464;18.976;2022-12-16T03:01:19;14.77;;;10.52;;
65665;SDS011;52365;47.464;18.976;2022-12-16T03:03:48;15.68;;;11.27;;
65665;SDS011;52365;47.464;18.976;2022-12-16T03:04:36;16.10;;;10.68;;
65665;SDS011;52365;47.464;18.976;2022-12-16T03:05:27;14.20;;;10.38;;
65665;SDS011;52365;47.464;18.976;2022-12-16T03:06:07;14.05;;;10.43;;
65665;SDS011;52365;47.464;18.976;2022-12-16T03:06:46;15.15;;;10.63;;
65665;SDS011;52365;47.464;18.976;2022-12-16T03:07:25;15.35;;;10.63;;
65665;SDS011;52365;47.464;18.976;2022-12-16T03:08:04;15.32;;;10.32;;
65665;SDS011;52365;47.464;18.976;2022-12-16T03:08:47;14.35;;;10.30;;
65665;SDS011;52365;47.464;18.976;2022-12-16T03:09:31;13.30;;;9.95;;
65665;SDS011;52365;47.464;18.976;2022-12-16T03:10:11;13.20;;;10.00;;
65665;SDS011;52365;47.464;18.976;2022-12-16T03:10:53;13.93;;;9.98;;
65665;SDS011;52365;47.464;18.976;2022-12-16T03:11:34;13.73;;;9.60;;
65665;SDS011;52365;47.464;18.976;2022-12-16T03:12:13;14.07;;;10.13;;
65665;SDS011;52365;47.464;18.976;2022-12-16T03:12:52;15.10;;;10.35;;
65665;SDS011;52365;47.464;18.976;2022-12-16T03:13:41;13.55;;;10.07;;
65665;SDS011;52365;47.464;18.976;2022-12-16T03:14:21;13.73;;;10.10;;
65665;SDS011;52365;47.464;18.976;2022-12-16T03:15:01;13.52;;;9.85;;
65665;SDS011;52365;47.464;18.976;2022-12-16T03:15:37;14.43;;;10.07;;
65665;SDS011;52365;47.464;18.976;2022-12-16T03:16:16;14.10;;;10.45;;
65665;SDS011;52365;47.464;18.976;2022-12-16T03:16:55;13.90;;;9.75;;
65665;SDS011;52365;47.464;18.976;2022-12-16T03:17:32;13.10;;;9.85;;
65665;SDS011;52365;47.464;18.976;2022-12-16T03:18:11;15.35;;;11.27;;
65665;SDS011;52365;47.464;18.976;2022-12-16T03:18:50;14.87;;;10.65;;
65665;SDS011;52365;47.464;18.976;2022-12-16T03:19:29;15.15;;;10.23;;
65665;SDS011;52365;47.464;18.976;2022-12-16T03:20:08;13.75;;;10.55;;
65665;SDS011;52365;47.464;18.976;2022-12-16T03:20:55;14.93;;;10.95;;
65665;SDS011;52365;47.464;18.976;2022-12-16T03:21:46;15.27;;;11.10;;
65665;SDS011;52365;47.464;18.976;2022-12-16T03:22:29;16.70;;;10.85;;
65665;SDS011;52365;47.464;18.976;2022-12-16T03:23:10;15.73;;;10.98;;
65665;SDS011;52365;47.464;18.976;2022-12-16T03:23:56;14.52;;;10.30;;
65665;SDS011;52365;47.464;18.976;2022-12-16T03:24:33;14.50;;;9.95;;
65665;SDS011;52365;47.464;18.976;2022-12-16T03:25:10;16.20;;;10.57;;
65665;SDS011;52365;47.464;18.976;2022-12-16T03:25:47;14.90;;;10.40;;
65665;SDS011;52365;47.464;18.976;2022-12-16T03:27:20;13.95;;;10.13;;
65665;SDS011;52365;47.464;18.976;2022-12-16T03:29:20;14.38;;;9.50;;
65665;SDS011;52365;47.464;18.976;2022-12-16T03:30:47;14.75;;;9.57;;
65665;SDS011;52365;47.464;18.976;2022-12-16T03:35:17;13.52;;;9.30;;
65665;SDS011;52365;47.464;18.976;2022-12-16T03:35:58;12.75;;;9.35;;
65665;SDS011;52365;47.464;18.976;2022-12-16T03:36:39;13.93;;;9.52;;
65665;SDS011;52365;47.464;18.976;2022-12-16T03:37:17;12.77;;;9.20;;
65665;SDS011;52365;47.464;18.976;2022-12-16T03:37:57;13.02;;;9.10;;
65665;SDS011;52365;47.464;18.976;2022-12-16T03:38:36;13.80;;;9.43;;
65665;SDS011;52365;47.464;18.976;2022-12-16T03:39:14;12.93;;;8.95;;
65665;SDS011;52365;47.464;18.976;2022-12-16T03:39:50;12.20;;;9.20;;
65665;SDS011;52365;47.464;18.976;2022-12-16T03:40:29;13.13;;;9.32;;
65665;SDS011;52365;47.464;18.976;2022-12-16T03:41:07;12.27;;;9.02;;
65665;SDS011;52365;47.464;18.976;2022-12-16T03:41:44;12.10;;;9.07;;
65665;SDS011;52365;47.464;18.976;2022-12-16T03:42:24;12.88;;;8.73;;
65665;SDS011;52365;47.464;18.976;2022-12-16T03:43:00;12.10;;;9.23;;
65665;SDS011;52365;47.464;18.976;2022-12-16T03:43:37;12.50;;;9.00;;
65665;SDS011;52365;47.464;18.976;2022-12-16T03:44:14;13.00;;;9.25;;
65665;SDS011;52365;47.464;18.976;2022-12-16T03:44:50;12.98;;;9.02;;
65665;SDS011;52365;47.464;18.976;2022-12-16T03:45:27;12.10;;;9.13;;
65665;SDS011;52365;47.464;18.976;2022-12-16T03:46:07;12.70;;;9.38;;
65665;SDS011;52365;47.464;18.976;2022-12-16T03:46:44;12.48;;;9.35;;
65665;SDS011;52365;47.464;18.976;2022-12-16T03:47:24;12.77;;;9.52;;
65665;SDS011;52365;47.464;18.976;2022-12-16T03:48:02;12.68;;;9.07;;
65665;SDS011;52365;47.464;18.976;2022-12-16T03:48:43;13.25;;;9.25;;
65665;SDS011;52365;47.464;18.976;2022-12-16T03:49:21;12.88;;;9.35;;
65665;SDS011;52365;47.464;18.976;2022-12-16T03:49:58;13.45;;;9.13;;
65665;SDS011;52365;47.464;18.976;2022-12-16T03:50:35;12.93;;;9.40;;
65665;SDS011;52365;47.464;18.976;2022-12-16T03:51:12;12.65;;;8.80;;
65665;SDS011;52365;47.464;18.976;2022-12-16T03:51:48;13.38;;;8.68;;
65665;SDS011;52365;47.464;18.976;2022-12-16T03:52:24;13.05;;;9.32;;
65665;SDS011;52365;47.464;18.976;2022-12-16T03:53:00;11.60;;;8.60;;
65665;SDS011;52365;47.464;18.976;2022-12-16T03:53:36;11.57;;;8.60;;
65665;SDS011;52365;47.464;18.976;2022-12-16T03:54:12;12.63;;;8.95;;
65665;SDS011;52365;47.464;18.976;2022-12-16T03:54:49;11.70;;;8.48;;
65665;SDS011;52365;47.464;18.976;2022-12-16T03:55:25;12.98;;;9.30;;
65665;SDS011;52365;47.464;18.976;2022-12-16T03:56:01;12.02;;;8.60;;
65665;SDS011;52365;47.464;18.976;2022-12-16T03:56:37;12.82;;;9.02;;
65665;SDS011;52365;47.464;18.976;2022-12-16T03:57:13;13.18;;;8.90;;
65665;SDS011;52365;47.464;18.976;2022-12-16T03:57:49;13.85;;;9.07;;
65665;SDS011;52365;47.464;18.976;2022-12-16T03:58:25;13.82;;;9.35;;
65665;SDS011;52365;47.464;18.976;2022-12-16T03:59:02;10.80;;;8.38;;
65665;SDS011;52365;47.464;18.976;2022-12-16T03:59:38;13.07;;;8.88;;
65665;SDS011;52365;47.464;18.976;2022-12-16T04:00:14;12.57;;;8.13;;
65665;SDS011;52365;47.464;18.976;2022-12-16T04:00:50;11.75;;;8.48;;
65665;SDS011;52365;47.464;18.976;2022-12-16T04:01:27;13.32;;;9.02;;
65665;SDS011;52365;47.464;18.976;2022-12-16T04:02:03;12.95;;;8.98;;
65665;SDS011;52365;47.464;18.976;2022-12-16T04:02:39;12.77;;;9.10;;
65665;SDS011;52365;47.464;18.976;2022-12-16T04:03:15;12.80;;;8.85;;
65665;SDS011;52365;47.464;18.976;2022-12-16T04:03:51;12.25;;;8.55;;
65665;SDS011;52365;47.464;18.976;2022-12-16T04:04:28;12.00;;;8.80;;
65665;SDS011;52365;47.464;18.976;2022-12-16T04:05:04;11.98;;;8.30;;
65665;SDS011;52365;47.464;18.976;2022-12-16T04:05:40;12.23;;;8.57;;
65665;SDS011;52365;47.464;18.976;2022-12-16T04:06:16;12.15;;;8.48;;
65665;SDS011;52365;47.464;18.976;2022-12-16T04:06:53;13.50;;;9.23;;
65665;SDS011;52365;47.464;18.976;2022-12-16T04:07:47;12.13;;;8.68;;
65665;SDS011;52365;47.464;18.976;2022-12-16T04:08:23;12.80;;;8.45;;
65665;SDS011;52365;47.464;18.976;2022-12-16T04:08:59;12.52;;;8.75;;
65665;SDS011;52365;47.464;18.976;2022-12-16T04:09:35;12.52;;;9.00;;
65665;SDS011;52365;47.464;18.976;2022-12-16T04:10:11;12.77;;;8.80;;
65665;SDS011;52365;47.464;18.976;2022-12-16T04:10:50;13.27;;;8.73;;
65665;SDS011;52365;47.464;18.976;2022-12-16T04:11:45;12.63;;;8.90;;
65665;SDS011;52365;47.464;18.976;2022-12-16T04:12:40;13.18;;;9.10;;
65665;SDS011;52365;47.464;18.976;2022-12-16T04:13:34;12.68;;;8.82;;
65665;SDS011;52365;47.464;18.976;2022-12-16T04:14:28;12.73;;;9.05;;
65665;SDS011;52365;47.464;18.976;2022-12-16T04:15:23;13.55;;;9.30;;
65665;SDS011;52365;47.464;18.976;2022-12-16T04:16:18;12.15;;;8.70;;
65665;SDS011;52365;47.464;18.976;2022-12-16T04:17:13;12.10;;;8.57;;
65665;SDS011;52365;47.464;18.976;2022-12-16T04:18:11;13.07;;;9.07;;
65665;SDS011;52365;47.464;18.976;2022-12-16T04:19:10;12.45;;;8.77;;
65665;SDS011;52365;47.464;18.976;2022-12-16T04:20:17;13.50;;;9.05;;
65665;SDS011;52365;47.464;18.976;2022-12-16T04:21:13;11.68;;;8.77;;
65665;SDS011;52365;47.464;18.976;2022-12-16T04:22:10;13.38;;;8.90;;
65665;SDS011;52365;47.464;18.976;2022-12-16T04:23:07;13.90;;;9.57;;
65665;SDS011;52365;47.464;18.976;2022-12-16T04:24:02;12.60;;;8.85;;
65665;SDS011;52365;47.464;18.976;2022-12-16T04:24:54;13.52;;;9.32;;
65665;SDS011;52365;47.464;18.976;2022-12-16T04:25:31;13.75;;;9.35;;
65665;SDS011;52365;47.464;18.976;2022-12-16T04:26:10;14.20;;;9.90;;
65665;SDS011;52365;47.464;18.976;2022-12-16T04:26:47;14.52;;;9.68;;
65665;SDS011;52365;47.464;18.976;2022-12-16T04:27:42;14.15;;;9.68;;